Time;durP1;ratioP1;P1;durP2;ratioP2;P2;SDS_P1;SDS_P2;PMS_P1;PMS_P2;Temp;Humidity;BMP_temperature;BMP_pressure;BME280_temperature;BME280_humidity;BME280_pressure;Samples;Min_cycle;Max_cycle;Signal;HPM_P1;HPM_P2
2021/08/28 00:00:50;;;;;;;1.80;0.93;;;;;22.70;100648.00;;;;2071929;28;20233;-69
2021/08/28 00:01:51;;;;;;;1.30;0.90;;;;;22.70;100688.00;;;;2071546;28;20210;-69
2021/08/28 00:02:51;;;;;;;1.30;0.70;;;;;22.70;100687.00;;;;2071348;28;20210;-69
2021/08/28 00:03:51;;;;;;;1.03;0.80;;;;;22.70;100683.00;;;;2070265;28;20230;-69
2021/08/28 00:04:52;;;;;;;1.37;0.80;;;;;22.70;100681.00;;;;2071612;28;20249;-69
2021/08/28 00:05:52;;;;;;;1.20;0.90;;;;;22.70;100678.00;;;;2071487;28;20207;-69
2021/08/28 00:06:52;;;;;;;1.50;0.90;;;;;22.70;100684.00;;;;2071049;28;20275;-69
2021/08/28 00:07:54;;;;;;;3.30;1.27;;;;;22.70;100678.00;;;;2071152;28;20222;-69
2021/08/28 00:08:54;;;;;;;0.80;0.60;;;;;22.70;100674.00;;;;2071478;28;20214;-69
2021/08/28 00:09:54;;;;;;;1.00;0.60;;;;;22.70;100680.00;;;;2071661;28;20712;-69
2021/08/28 00:10:55;;;;;;;1.33;1.00;;;;;22.70;100685.00;;;;2071565;28;20588;-69
2021/08/28 00:11:55;;;;;;;1.23;0.83;;;;;22.70;100676.00;;;;2071202;28;20638;-69
2021/08/28 00:12:55;;;;;;;0.90;0.80;;;;;22.70;100686.00;;;;2059459;28;20211;-69
2021/08/28 00:13:56;;;;;;;1.63;1.00;;;;;22.70;100677.00;;;;2066727;28;20265;-69
2021/08/28 00:14:57;;;;;;;1.03;0.77;;;;;22.70;100679.00;;;;2071752;28;20314;-69
2021/08/28 00:15:57;;;;;;;1.87;1.10;;;;;22.70;100678.00;;;;2071576;28;20218;-69
2021/08/28 00:16:57;;;;;;;2.00;1.00;;;;;22.70;100680.00;;;;2071766;28;20453;-70
2021/08/28 00:17:58;;;;;;;0.97;0.80;;;;;22.70;100674.00;;;;2071771;28;20206;-69
2021/08/28 00:18:58;;;;;;;0.90;0.67;;;;;22.70;100674.00;;;;2071532;28;20565;-69
2021/08/28 00:20:09;;;;;;;0.93;0.73;;;;;22.70;100679.00;;;;2071654;28;20218;-69
2021/08/28 00:21:09;;;;;;;1.52;1.10;;;;;22.70;100668.00;;;;2068062;28;20232;-68
2021/08/28 00:22:10;;;;;;;1.30;1.00;;;;;22.70;100664.00;;;;2071799;28;20210;-69
2021/08/28 00:23:10;;;;;;;2.67;0.97;;;;;22.70;100675.00;;;;2070910;28;20221;-69
2021/08/28 00:24:11;;;;;;;1.00;0.70;;;;;22.70;100672.00;;;;2070838;28;20293;-69
2021/08/28 00:25:11;;;;;;;1.50;0.90;;;;;22.70;100681.00;;;;2071667;28;20213;-69
2021/08/28 00:26:12;;;;;;;1.50;1.00;;;;;22.70;100671.00;;;;2071722;28;20230;-69
2021/08/28 00:27:12;;;;;;;1.40;0.80;;;;;22.70;100675.00;;;;2071836;28;20693;-69
2021/08/28 00:28:12;;;;;;;0.70;0.70;;;;;22.70;100673.00;;;;2071751;28;20592;-69
2021/08/28 00:29:13;;;;;;;1.07;0.90;;;;;22.70;100678.00;;;;2070941;28;20658;-69
2021/08/28 00:30:13;;;;;;;0.97;0.60;;;;;22.70;100664.00;;;;2070740;28;20301;-69
2021/08/28 00:31:13;;;;;;;1.00;0.80;;;;;22.70;100668.00;;;;2070959;28;20214;-70
2021/08/28 00:32:14;;;;;;;0.90;0.80;;;;;22.70;100669.00;;;;2071201;28;20237;-69
2021/08/28 00:33:15;;;;;;;0.90;0.80;;;;;22.70;100676.00;;;;2071744;28;20240;-69
2021/08/28 00:34:15;;;;;;;0.73;0.70;;;;;22.70;100678.00;;;;2071099;28;20263;-69
2021/08/28 00:35:15;;;;;;;1.07;0.73;;;;;22.70;100676.00;;;;2070567;28;20268;-69
2021/08/28 00:36:16;;;;;;;1.20;0.80;;;;;22.70;100681.00;;;;2071723;28;20213;-71
2021/08/28 00:37:16;;;;;;;1.77;1.10;;;;;22.70;100676.00;;;;2071789;28;20206;-69
2021/08/28 00:38:16;;;;;;;1.10;0.87;;;;;22.70;100675.00;;;;2071692;28;20210;-69
2021/08/28 00:39:17;;;;;;;1.00;0.90;;;;;22.70;100678.00;;;;2071550;28;20221;-69
2021/08/28 00:40:17;;;;;;;1.07;0.87;;;;;22.70;100680.00;;;;2071389;28;20301;-69
2021/08/28 00:41:17;;;;;;;1.20;0.77;;;;;22.70;100674.00;;;;2071471;28;20214;-69
2021/08/28 00:42:18;;;;;;;0.80;0.70;;;;;22.70;100680.00;;;;2071695;28;20210;-69
2021/08/28 00:43:18;;;;;;;0.87;0.80;;;;;22.70;100682.00;;;;2069845;28;20203;-69
2021/08/28 00:44:18;;;;;;;0.87;0.70;;;;;22.70;100684.00;;;;2070329;28;20230;-69
2021/08/28 00:45:25;;;;;;;1.30;0.80;;;;;22.70;100681.00;;;;2070091;28;20245;-69
2021/08/28 00:46:25;;;;;;;1.05;0.80;;;;;22.70;100685.00;;;;2069859;28;20222;-69
2021/08/28 00:47:26;;;;;;;0.93;0.70;;;;;22.70;100682.00;;;;2070054;28;20700;-69
2021/08/28 00:48:26;;;;;;;1.50;1.00;;;;;22.70;100690.00;;;;2070996;28;20605;-69
2021/08/28 00:49:27;;;;;;;1.30;0.90;;;;;22.70;100683.00;;;;2070670;28;20217;-69
2021/08/28 00:50:28;;;;;;;1.50;1.00;;;;;22.70;100684.00;;;;2070755;28;20345;-69
2021/08/28 00:51:28;;;;;;;1.25;0.90;;;;;22.70;100684.00;;;;2071569;28;20214;-69
2021/08/28 00:52:29;;;;;;;1.10;0.70;;;;;22.70;100686.00;;;;2070449;28;20221;-69
2021/08/28 00:53:29;;;;;;;1.00;0.80;;;;;22.70;100689.00;;;;2070891;28;20333;-69
2021/08/28 00:54:32;;;;;;;2.00;0.90;;;;;22.70;100688.00;;;;2071587;28;20221;-69
2021/08/28 00:55:34;;;;;;;1.90;1.00;;;;;22.70;100694.00;;;;2073009;28;20677;-69
2021/08/28 00:56:35;;;;;;;1.33;0.93;;;;;22.70;100695.00;;;;2073102;28;20673;-69
2021/08/28 00:57:35;;;;;;;1.53;1.00;;;;;22.70;100697.00;;;;2073228;28;20306;-69
2021/08/28 00:58:35;;;;;;;1.20;1.10;;;;;22.70;100700.00;;;;2072739;28;20214;-69
2021/08/28 00:59:36;;;;;;;1.10;0.90;;;;;22.70;100702.00;;;;2072519;28;20211;-69
2021/08/28 01:00:47;;;;;;;1.00;0.90;;;;;22.70;100703.00;;;;2072072;28;20210;-69
2021/08/28 01:01:47;;;;;;;1.63;0.90;;;;;22.70;100702.00;;;;2072203;28;20292;-69
2021/08/28 01:02:49;;;;;;;1.00;0.90;;;;;22.70;100696.00;;;;2061648;28;20251;-69
2021/08/28 01:03:52;;;;;;;1.63;1.00;;;;;22.70;100705.00;;;;2052531;28;20230;-69
2021/08/28 01:05:05;;;;;;;1.25;1.05;;;;;22.70;100701.00;;;;2064531;28;20785;-69
2021/08/28 01:06:09;;;;;;;1.20;0.90;;;;;22.70;100694.00;;;;2066014;28;20246;-69
2021/08/28 01:07:36;;;;;;;0.98;0.85;;;;;22.70;100699.00;;;;2071979;28;20217;-69
2021/08/28 01:09:05;;;;;;;1.45;1.00;;;;;22.70;100696.00;;;;2063510;28;20768;-69
2021/08/28 01:10:05;;;;;;;1.10;0.90;;;;;22.70;100693.00;;;;2063628;28;20215;-69
2021/08/28 01:11:15;;;;;;;1.30;1.10;;;;;22.70;100686.00;;;;2058513;28;20694;-69
2021/08/28 01:12:19;;;;;;;0.90;0.75;;;;;22.70;100694.00;;;;2071274;28;20238;-68
2021/08/28 01:13:19;;;;;;;1.25;0.90;;;;;22.70;100686.00;;;;2063770;28;20226;-69
2021/08/28 01:14:23;;;;;;;1.00;0.80;;;;;22.70;100688.00;;;;2071560;28;20301;-69
2021/08/28 01:15:24;;;;;;;2.83;0.98;;;;;22.70;100680.00;;;;2067973;28;20206;-71
2021/08/28 01:16:24;;;;;;;1.57;0.97;;;;;22.70;100695.00;;;;2071533;28;20769;-69
2021/08/28 01:17:27;;;;;;;1.10;0.80;;;;;22.70;100692.00;;;;2071531;28;20718;-69
2021/08/28 01:18:27;;;;;;;1.20;0.90;;;;;22.70;100689.00;;;;2071096;28;20323;-69
2021/08/28 01:19:35;;;;;;;1.20;1.10;;;;;22.70;100683.00;;;;2071541;28;20724;-69
2021/08/28 01:21:05;;;;;;;1.90;1.10;;;;;22.70;100684.00;;;;2071647;28;20711;-69
2021/08/28 01:22:10;;;;;;;1.10;1.00;;;;;22.70;100678.00;;;;2064064;28;20706;-69
2021/08/28 01:23:10;;;;;;;0.90;0.80;;;;;22.70;100685.00;;;;2063990;28;20230;-69
2021/08/28 01:24:10;;;;;;;1.23;0.97;;;;;22.70;100663.00;;;;2063516;28;20268;-69
2021/08/28 01:25:10;;;;;;;1.03;0.90;;;;;22.70;100681.00;;;;2071751;28;20234;-69
2021/08/28 01:26:14;;;;;;;1.70;1.23;;;;;22.70;100683.00;;;;2060305;28;20219;-69
2021/08/28 01:27:19;;;;;;;1.20;1.10;;;;;22.70;100687.00;;;;2055895;28;20227;-69
2021/08/28 01:28:20;;;;;;;1.40;1.00;;;;;22.70;100685.00;;;;2068962;28;20222;-69
2021/08/28 01:29:25;;;;;;;1.27;0.80;;;;;22.70;100683.00;;;;2071062;28;20245;-69
2021/08/28 01:30:26;;;;;;;1.50;1.05;;;;;22.70;100696.00;;;;2064778;28;20218;-69
2021/08/28 01:31:26;;;;;;;1.20;1.10;;;;;22.70;100680.00;;;;2063881;28;20615;-69
2021/08/28 01:32:27;;;;;;;1.90;1.17;;;;;22.70;100698.00;;;;2072127;28;20640;-69
2021/08/28 01:33:27;;;;;;;0.93;0.87;;;;;22.70;100689.00;;;;2071250;28;20580;-69
2021/08/28 01:34:28;;;;;;;1.47;1.10;;;;;22.70;100696.00;;;;2063792;28;20204;-69
2021/08/28 01:35:28;;;;;;;1.40;1.03;;;;;22.70;100694.00;;;;2064041;28;20237;-69
2021/08/28 01:36:29;;;;;;;1.40;1.30;;;;;22.70;100693.00;;;;2072045;28;20449;-69
2021/08/28 01:37:29;;;;;;;2.53;1.43;;;;;22.70;100691.00;;;;2053914;28;20227;-69
2021/08/28 01:38:29;;;;;;;1.30;1.10;;;;;22.70;100690.00;;;;2056094;28;20243;-69
2021/08/28 01:39:31;;;;;;;1.83;1.20;;;;;22.70;100688.00;;;;2070667;28;20372;-69
2021/08/28 01:40:31;;;;;;;1.92;1.10;;;;;22.70;100697.00;;;;2064036;28;20713;-69
2021/08/28 01:41:32;;;;;;;1.77;1.30;;;;;22.70;100696.00;;;;2052217;28;20212;-69
2021/08/28 01:42:32;;;;;;;1.27;1.10;;;;;22.70;100678.00;;;;2060193;28;20222;-69
2021/08/28 01:43:33;;;;;;;1.57;1.47;;;;;22.60;100691.00;;;;2071980;28;20618;-69
2021/08/28 01:44:33;;;;;;;1.30;1.20;;;;;22.70;100690.00;;;;2063873;28;20227;-69
2021/08/28 01:45:33;;;;;;;1.63;1.40;;;;;22.70;100696.00;;;;2063850;28;20305;-69
2021/08/28 01:46:34;;;;;;;1.33;1.23;;;;;22.60;100696.00;;;;2063356;28;20246;-69
2021/08/28 01:47:34;;;;;;;1.30;1.20;;;;;22.60;100694.00;;;;2071756;28;20222;-69
2021/08/28 01:48:34;;;;;;;1.30;1.10;;;;;22.70;100695.00;;;;2054271;28;20266;-69
2021/08/28 01:49:34;;;;;;;1.50;1.20;;;;;22.70;100698.00;;;;2055637;28;20223;-69
2021/08/28 01:50:35;;;;;;;1.77;1.17;;;;;22.70;100705.00;;;;2063571;28;20265;-69
2021/08/28 01:51:36;;;;;;;1.40;1.30;;;;;22.70;100702.00;;;;2052390;28;20278;-69
2021/08/28 01:52:37;;;;;;;1.75;1.30;;;;;22.70;100702.00;;;;2055996;28;20266;-70
2021/08/28 01:53:37;;;;;;;1.47;1.27;;;;;22.70;100703.00;;;;2069390;28;20743;-69
2021/08/28 01:54:37;;;;;;;1.73;1.30;;;;;22.70;100693.00;;;;2072020;28;20289;-69
2021/08/28 01:55:40;;;;;;;1.87;1.20;;;;;22.70;100689.00;;;;2072006;28;20226;-69
2021/08/28 01:56:40;;;;;;;2.30;1.52;;;;;22.70;100709.00;;;;2070121;28;20296;-69
2021/08/28 01:57:41;;;;;;;1.40;1.30;;;;;22.70;100677.00;;;;2071729;28;20739;-69
2021/08/28 01:58:42;;;;;;;1.30;1.20;;;;;22.70;100695.00;;;;2052127;28;20707;-69
2021/08/28 01:59:43;;;;;;;1.20;1.10;;;;;22.70;100704.00;;;;2055821;28;20451;-69
2021/08/28 02:00:43;;;;;;;1.70;1.40;;;;;22.70;100698.00;;;;2071847;28;20238;-69
2021/08/28 02:01:44;;;;;;;1.60;1.50;;;;;22.70;100697.00;;;;2072286;28;20240;-69
2021/08/28 02:02:44;;;;;;;1.10;1.00;;;;;22.70;100695.00;;;;2072087;28;20214;-69
2021/08/28 02:03:44;;;;;;;1.40;1.30;;;;;22.70;100698.00;;;;2072558;28;20218;-69
2021/08/28 02:04:44;;;;;;;2.23;1.50;;;;;22.70;100693.00;;;;2072623;28;20222;-69
2021/08/28 02:05:47;;;;;;;2.00;1.50;;;;;22.70;100695.00;;;;2071459;28;20705;-69
2021/08/28 02:07:06;;;;;;;1.60;1.50;;;;;22.60;100691.00;;;;2059348;28;20662;-69
2021/08/28 02:08:07;;;;;;;1.90;1.70;;;;;22.60;100695.00;;;;2066511;28;20741;-69
2021/08/28 02:09:35;;;;;;;1.60;1.50;;;;;22.60;100690.00;;;;2071669;28;20222;-70
2021/08/28 02:10:42;;;;;;;1.83;1.73;;;;;22.60;100698.00;;;;2067053;28;20560;-69
2021/08/28 02:12:11;;;;;;;1.92;1.60;;;;;22.60;100700.00;;;;2064565;28;20658;-69
2021/08/28 02:13:24;;;;;;;2.20;1.83;;;;;22.60;100681.00;;;;2065195;28;20659;-69
2021/08/28 02:14:33;;;;;;;2.70;2.15;;;;;22.60;100691.00;;;;2061376;28;20202;-69
2021/08/28 02:15:37;;;;;;;1.45;1.35;;;;;22.60;100697.00;;;;2072046;28;20203;-68
2021/08/28 02:16:37;;;;;;;1.77;1.55;;;;;22.70;100699.00;;;;2071614;28;20245;-69
2021/08/28 02:17:42;;;;;;;1.73;1.63;;;;;22.70;100694.00;;;;2059759;28;20207;-69
2021/08/28 02:18:45;;;;;;;2.00;1.80;;;;;22.60;100698.00;;;;2062424;28;20302;-69
2021/08/28 02:19:46;;;;;;;1.80;1.70;;;;;22.70;100687.00;;;;2071567;28;20272;-69
2021/08/28 02:20:48;;;;;;;2.57;2.20;;;;;22.60;100689.00;;;;2071738;28;20312;-69
2021/08/28 02:21:53;;;;;;;1.80;1.70;;;;;22.60;100695.00;;;;2071862;28;20221;-69
2021/08/28 02:22:57;;;;;;;1.80;1.70;;;;;22.60;100695.00;;;;2064062;28;20261;-69
2021/08/28 02:24:07;;;;;;;2.00;1.80;;;;;22.60;100697.00;;;;2071766;28;20677;-69
2021/08/28 02:25:15;;;;;;;1.95;1.85;;;;;22.60;100698.00;;;;2070094;28;20226;-69
2021/08/28 02:26:20;;;;;;;2.10;2.00;;;;;22.70;100702.00;;;;2056717;28;20262;-70
2021/08/28 02:27:26;;;;;;;2.00;1.90;;;;;22.70;100694.00;;;;2057050;28;20232;-69
2021/08/28 02:28:37;;;;;;;2.20;2.00;;;;;22.70;100691.00;;;;2071705;28;20234;-69
2021/08/28 02:29:41;;;;;;;2.30;2.10;;;;;22.60;100698.00;;;;2065205;28;20658;-69
2021/08/28 02:30:41;;;;;;;2.55;2.35;;;;;22.70;100689.00;;;;2071612;28;20297;-69
2021/08/28 02:31:43;;;;;;;2.20;2.00;;;;;22.70;100689.00;;;;2063479;28;20214;-69
2021/08/28 02:32:50;;;;;;;2.40;2.20;;;;;22.70;100689.00;;;;2063700;28;20321;-69
2021/08/28 02:33:51;;;;;;;2.35;2.15;;;;;22.60;100703.00;;;;2067962;28;20269;-69
2021/08/28 02:34:51;;;;;;;2.10;1.97;;;;;22.60;100690.00;;;;2063202;28;20322;-69
2021/08/28 02:35:53;;;;;;;2.27;2.07;;;;;22.60;100694.00;;;;2050161;28;20260;-69
2021/08/28 02:36:53;;;;;;;2.65;2.45;;;;;22.70;100694.00;;;;2060771;28;20230;-69
2021/08/28 02:37:53;;;;;;;2.17;2.03;;;;;22.60;100694.00;;;;2063733;28;20277;-69
2021/08/28 02:38:54;;;;;;;2.53;2.33;;;;;22.60;100686.00;;;;2059446;28;20212;-69
2021/08/28 02:39:54;;;;;;;2.10;2.00;;;;;22.60;100687.00;;;;2059727;28;20210;-69
2021/08/28 02:40:56;;;;;;;2.53;2.33;;;;;22.60;100687.00;;;;2063381;28;20210;-69
2021/08/28 02:41:56;;;;;;;2.33;2.13;;;;;22.60;100684.00;;;;2071656;28;20296;-69
2021/08/28 02:42:57;;;;;;;2.47;2.23;;;;;22.60;100685.00;;;;2071457;28;20218;-69
2021/08/28 02:43:57;;;;;;;2.40;2.20;;;;;22.60;100683.00;;;;2071577;28;20252;-69
2021/08/28 02:44:57;;;;;;;2.43;2.23;;;;;22.60;100682.00;;;;2071335;28;20222;-69
2021/08/28 02:45:58;;;;;;;2.83;2.63;;;;;22.60;100690.00;;;;2061787;28;20215;-69
2021/08/28 02:46:58;;;;;;;2.20;2.00;;;;;22.60;100683.00;;;;2061056;28;20218;-69
2021/08/28 02:47:58;;;;;;;2.27;2.10;;;;;22.60;100682.00;;;;2063402;28;20215;-69
2021/08/28 02:48:59;;;;;;;2.50;2.30;;;;;22.60;100679.00;;;;2068457;28;20697;-69
2021/08/28 02:49:59;;;;;;;2.37;2.17;;;;;22.60;100689.00;;;;2058415;28;20622;-69
2021/08/28 02:51:01;;;;;;;2.50;2.30;;;;;22.60;100683.00;;;;2059647;28;20246;-69
2021/08/28 02:52:01;;;;;;;2.45;2.25;;;;;22.60;100690.00;;;;2067304;28;20727;-69
2021/08/28 02:53:02;;;;;;;2.50;2.30;;;;;22.60;100683.00;;;;2068178;28;20221;-69
2021/08/28 02:54:02;;;;;;;2.67;2.47;;;;;22.60;100688.00;;;;2062095;28;20281;-69
2021/08/28 02:55:02;;;;;;;2.70;2.50;;;;;22.70;100695.00;;;;2067118;28;20198;-69
2021/08/28 02:56:03;;;;;;;2.50;2.30;;;;;22.70;100689.00;;;;2061556;28;20204;-69
2021/08/28 02:57:03;;;;;;;2.50;2.30;;;;;22.60;100691.00;;;;2055327;28;20690;-69
2021/08/28 02:58:04;;;;;;;3.00;2.80;;;;;22.60;100674.00;;;;2063417;28;20246;-69
2021/08/28 02:59:04;;;;;;;2.70;2.50;;;;;22.60;100685.00;;;;2063222;28;20213;-69
2021/08/28 03:00:05;;;;;;;2.50;2.30;;;;;22.60;100690.00;;;;2071168;28;20210;-69
2021/08/28 03:01:06;;;;;;;3.00;2.75;;;;;22.60;100686.00;;;;2071370;28;20209;-69
2021/08/28 03:02:06;;;;;;;2.63;2.43;;;;;22.60;100681.00;;;;2071242;28;20214;-69
2021/08/28 03:03:06;;;;;;;2.70;2.50;;;;;22.60;100684.00;;;;2071434;28;20255;-69
2021/08/28 03:04:07;;;;;;;2.70;2.50;;;;;22.60;100677.00;;;;2061201;28;20242;-69
2021/08/28 03:05:08;;;;;;;2.93;2.73;;;;;22.60;100673.00;;;;2067039;28;20217;-69
2021/08/28 03:06:08;;;;;;;3.20;2.90;;;;;22.60;100680.00;;;;2062188;28;20226;-69
2021/08/28 03:07:09;;;;;;;2.97;2.77;;;;;22.60;100690.00;;;;2059845;28;20738;-69
2021/08/28 03:08:09;;;;;;;2.90;2.70;;;;;22.60;100679.00;;;;2050992;28;20295;-69
2021/08/28 03:09:09;;;;;;;2.80;2.60;;;;;22.60;100691.00;;;;2055114;28;20219;-69
2021/08/28 03:10:10;;;;;;;3.03;2.53;;;;;22.60;100685.00;;;;2071294;28;21049;-69
2021/08/28 03:11:11;;;;;;;3.07;2.77;;;;;22.60;100683.00;;;;2055082;28;20729;-69
2021/08/28 03:12:11;;;;;;;3.25;2.83;;;;;22.60;100685.00;;;;2053402;28;20597;-69
2021/08/28 03:13:12;;;;;;;3.50;3.20;;;;;22.60;100667.00;;;;2067100;28;20251;-69
2021/08/28 03:14:12;;;;;;;3.03;2.73;;;;;22.60;100678.00;;;;2070045;28;20728;-69
2021/08/28 03:15:12;;;;;;;3.20;2.90;;;;;22.60;100680.00;;;;2067667;28;20775;-69
2021/08/28 03:16:13;;;;;;;3.80;2.93;;;;;22.60;100671.00;;;;2062789;28;20229;-69
2021/08/28 03:17:13;;;;;;;3.10;2.70;;;;;22.60;100668.00;;;;2062893;28;20211;-69
2021/08/28 03:18:15;;;;;;;3.00;2.80;;;;;22.60;100676.00;;;;2063257;28;20231;-69
2021/08/28 03:19:15;;;;;;;3.08;2.88;;;;;22.60;100669.00;;;;2071192;28;20297;-69
2021/08/28 03:20:16;;;;;;;3.23;2.93;;;;;22.60;100661.00;;;;2061544;28;20214;-69
2021/08/28 03:21:16;;;;;;;2.83;2.63;;;;;22.60;100675.00;;;;2058828;28;20238;-69
2021/08/28 03:22:19;;;;;;;2.70;2.50;;;;;22.60;100673.00;;;;2053719;28;20212;-69
2021/08/28 03:23:21;;;;;;;3.50;3.30;;;;;22.60;100675.00;;;;2044407;28;20221;-69
2021/08/28 03:24:23;;;;;;;3.13;2.90;;;;;22.70;100682.00;;;;2059522;28;20270;-69
2021/08/28 03:25:24;;;;;;;3.47;3.20;;;;;22.60;100657.00;;;;2071283;28;20217;-69
2021/08/28 03:26:24;;;;;;;3.37;3.07;;;;;22.60;100671.00;;;;2071308;28;20702;-69
2021/08/28 03:27:24;;;;;;;3.33;3.13;;;;;22.60;100668.00;;;;2071369;28;20258;-69
2021/08/28 03:28:26;;;;;;;3.60;3.30;;;;;22.60;100613.00;;;;2063163;28;20218;-69
2021/08/28 03:29:27;;;;;;;4.07;3.78;;;;;22.60;100661.00;;;;2062090;28;20226;-69
2021/08/28 03:30:27;;;;;;;3.90;3.60;;;;;22.60;100666.00;;;;2062995;28;20254;-69
2021/08/28 03:31:27;;;;;;;3.30;3.10;;;;;22.60;100672.00;;;;2071155;28;20272;-69
2021/08/28 03:32:28;;;;;;;3.80;3.50;;;;;22.60;100668.00;;;;2059150;28;20219;-69
2021/08/28 03:33:28;;;;;;;3.70;3.40;;;;;22.60;100673.00;;;;2063189;28;20246;-69
2021/08/28 03:34:28;;;;;;;4.00;3.70;;;;;22.60;100671.00;;;;2071276;28;20292;-69
2021/08/28 03:35:29;;;;;;;3.33;3.03;;;;;22.60;100668.00;;;;2071302;28;20218;-69
2021/08/28 03:36:29;;;;;;;3.60;3.30;;;;;22.60;100671.00;;;;2071249;28;20229;-69
2021/08/28 03:37:29;;;;;;;3.20;3.00;;;;;22.60;100651.00;;;;2062958;28;20240;-69
2021/08/28 03:38:30;;;;;;;4.30;4.00;;;;;22.60;100664.00;;;;2063135;28;20219;-69
2021/08/28 03:39:30;;;;;;;4.20;3.90;;;;;22.60;100670.00;;;;2071092;28;20214;-69
2021/08/28 03:40:30;;;;;;;4.07;3.77;;;;;22.60;100657.00;;;;2062744;28;20829;-69
2021/08/28 03:41:31;;;;;;;3.97;3.57;;;;;22.60;100655.00;;;;2062845;28;20223;-69
2021/08/28 03:42:31;;;;;;;3.80;3.50;;;;;22.60;100661.00;;;;2063160;28;20218;-69
2021/08/28 03:43:32;;;;;;;3.93;3.63;;;;;22.60;100656.00;;;;2071058;28;20685;-69
2021/08/28 03:44:37;;;;;;;3.80;3.50;;;;;22.60;100656.00;;;;2062766;28;20219;-69
2021/08/28 03:45:37;;;;;;;3.58;3.28;;;;;22.60;100655.00;;;;2055714;28;20770;-69
2021/08/28 03:46:38;;;;;;;3.70;3.40;;;;;22.60;100654.00;;;;2064512;28;20206;-69
2021/08/28 03:47:43;;;;;;;3.70;3.40;;;;;22.60;100661.00;;;;2063884;28;20301;-69
2021/08/28 03:48:43;;;;;;;4.43;4.07;;;;;22.60;100657.00;;;;2061843;28;20222;-69
2021/08/28 03:49:44;;;;;;;4.60;4.20;;;;;22.60;100655.00;;;;2064972;28;20621;-69
2021/08/28 03:50:44;;;;;;;4.00;3.70;;;;;22.60;100662.00;;;;2068990;28;20583;-69
2021/08/28 03:51:45;;;;;;;3.63;3.43;;;;;22.60;100654.00;;;;2071069;28;20245;-70
2021/08/28 03:52:45;;;;;;;4.03;3.67;;;;;22.60;100650.00;;;;2068967;28;20218;-69
2021/08/28 03:53:45;;;;;;;4.17;3.87;;;;;22.60;100652.00;;;;2071758;28;20689;-69
2021/08/28 03:54:46;;;;;;;4.57;4.17;;;;;22.60;100650.00;;;;2071845;28;20595;-69
2021/08/28 03:55:46;;;;;;;4.30;3.90;;;;;22.60;100655.00;;;;2071654;28;20701;-69
2021/08/28 03:56:46;;;;;;;4.10;3.70;;;;;22.60;100652.00;;;;2071871;28;20244;-69
2021/08/28 03:57:46;;;;;;;5.20;4.67;;;;;22.60;100658.00;;;;2071857;28;20603;-69
2021/08/28 03:58:47;;;;;;;4.10;3.80;;;;;22.60;100655.00;;;;2071456;28;20660;-69
2021/08/28 03:59:47;;;;;;;3.50;3.20;;;;;22.60;100654.00;;;;2071934;28;20562;-69
2021/08/28 04:00:47;;;;;;;4.00;3.70;;;;;22.60;100660.00;;;;2071850;28;20585;-69
2021/08/28 04:01:48;;;;;;;4.90;4.50;;;;;22.60;100655.00;;;;2071734;28;20865;-69
2021/08/28 04:02:48;;;;;;;5.47;5.03;;;;;22.60;100652.00;;;;2071076;28;20265;-69
2021/08/28 04:03:48;;;;;;;5.10;4.70;;;;;22.60;100660.00;;;;2071131;28;20226;-69
2021/08/28 04:04:49;;;;;;;5.27;4.80;;;;;22.60;100653.00;;;;2071633;28;20229;-69
2021/08/28 04:05:49;;;;;;;4.30;4.00;;;;;22.60;100648.00;;;;2071764;28;20221;-69
2021/08/28 04:06:49;;;;;;;5.47;4.47;;;;;22.60;100650.00;;;;2071744;28;20222;-69
2021/08/28 04:07:50;;;;;;;4.73;4.43;;;;;22.60;100650.00;;;;2071686;28;20878;-69
2021/08/28 04:08:50;;;;;;;5.13;4.73;;;;;22.60;100654.00;;;;2071009;28;20571;-69
2021/08/28 04:09:51;;;;;;;4.70;4.30;;;;;22.50;100652.00;;;;2070899;28;20744;-69
2021/08/28 04:10:51;;;;;;;5.27;4.87;;;;;22.60;100654.00;;;;2071019;28;20251;-69
2021/08/28 04:11:51;;;;;;;4.37;4.00;;;;;22.60;100653.00;;;;2071658;28;20677;-69
2021/08/28 04:12:52;;;;;;;5.00;4.50;;;;;22.60;100655.00;;;;2070951;28;20206;-69
2021/08/28 04:13:52;;;;;;;5.03;4.63;;;;;22.60;100658.00;;;;2067140;28;20237;-69
2021/08/28 04:14:52;;;;;;;4.70;4.30;;;;;22.60;100650.00;;;;2071524;28;20234;-69
2021/08/28 04:15:54;;;;;;;5.30;4.87;;;;;22.60;100646.00;;;;2071644;28;20206;-69
2021/08/28 04:16:54;;;;;;;5.43;4.93;;;;;22.60;100646.00;;;;2071689;28;20237;-69
2021/08/28 04:17:55;;;;;;;5.07;4.67;;;;;22.60;100639.00;;;;2071485;28;20435;-69
2021/08/28 04:18:56;;;;;;;4.13;3.83;;;;;22.60;100634.00;;;;2071372;28;20210;-69
2021/08/28 04:19:56;;;;;;;5.23;4.83;;;;;22.60;100633.00;;;;2071680;28;20693;-69
2021/08/28 04:20:56;;;;;;;5.10;4.70;;;;;22.60;100636.00;;;;2071673;28;20731;-69
2021/08/28 04:21:57;;;;;;;5.70;5.30;;;;;22.60;100635.00;;;;2071605;28;20637;-69
2021/08/28 04:22:57;;;;;;;4.90;4.50;;;;;22.60;100634.00;;;;2071719;28;20567;-69
2021/08/28 04:23:57;;;;;;;5.27;4.87;;;;;22.60;100627.00;;;;2071024;28;20586;-69
2021/08/28 04:24:58;;;;;;;5.20;4.70;;;;;22.60;100627.00;;;;2070338;28;20226;-69
2021/08/28 04:25:58;;;;;;;5.17;4.77;;;;;22.60;100625.00;;;;2071506;28;20268;-69
2021/08/28 04:27:00;;;;;;;4.83;4.47;;;;;22.60;100632.00;;;;2071521;28;20214;-69
2021/08/28 04:28:00;;;;;;;5.13;4.72;;;;;22.60;100627.00;;;;2068561;28;20211;-69
2021/08/28 04:29:00;;;;;;;5.77;5.27;;;;;22.60;100623.00;;;;2070063;28;20210;-69
2021/08/28 04:30:01;;;;;;;6.10;5.57;;;;;22.60;100627.00;;;;2072499;28;20233;-69
2021/08/28 04:31:01;;;;;;;6.10;5.60;;;;;22.60;100622.00;;;;2072726;28;20263;-69
2021/08/28 04:32:01;;;;;;;5.57;5.07;;;;;22.60;100626.00;;;;2073175;28;20217;-69
2021/08/28 04:33:02;;;;;;;6.27;5.77;;;;;22.60;100615.00;;;;2073348;28;20213;-69
2021/08/28 04:34:02;;;;;;;5.20;4.80;;;;;22.60;100621.00;;;;2073272;28;20280;-69
2021/08/28 04:35:02;;;;;;;5.33;4.93;;;;;22.60;100624.00;;;;2073143;28;20206;-69
2021/08/28 04:36:03;;;;;;;5.57;5.10;;;;;22.60;100621.00;;;;2073227;28;20233;-69
2021/08/28 04:37:03;;;;;;;6.10;5.60;;;;;22.60;100625.00;;;;2073208;28;21082;-69
2021/08/28 04:38:04;;;;;;;6.03;5.53;;;;;22.60;100628.00;;;;2072670;28;20218;-69
2021/08/28 04:39:04;;;;;;;6.00;5.50;;;;;22.60;100614.00;;;;2072466;28;20716;-69
2021/08/28 04:40:05;;;;;;;5.57;5.07;;;;;22.60;100617.00;;;;2071767;28;20709;-69
2021/08/28 04:41:05;;;;;;;6.10;5.60;;;;;22.60;100625.00;;;;2068747;28;20218;-69
2021/08/28 04:42:05;;;;;;;5.83;5.33;;;;;22.60;100625.00;;;;2072795;28;20684;-69
2021/08/28 04:43:06;;;;;;;6.10;5.60;;;;;22.60;100627.00;;;;2073071;28;20739;-69
2021/08/28 04:44:06;;;;;;;6.80;6.20;;;;;22.60;100627.00;;;;2073260;28;20217;-69
2021/08/28 04:45:07;;;;;;;5.53;5.03;;;;;22.60;100627.00;;;;2073011;28;20276;-69
2021/08/28 04:46:07;;;;;;;5.82;5.32;;;;;22.60;100626.00;;;;2073135;28;20246;-69
2021/08/28 04:47:08;;;;;;;5.87;5.37;;;;;22.60;100615.00;;;;2072836;28;20221;-69
2021/08/28 04:48:08;;;;;;;6.17;5.67;;;;;22.60;100618.00;;;;2073097;28;20222;-69
2021/08/28 04:49:09;;;;;;;5.63;5.13;;;;;22.60;100621.00;;;;2072994;28;20218;-69
2021/08/28 04:50:10;;;;;;;5.77;5.27;;;;;22.60;100624.00;;;;2073258;28;20659;-69
2021/08/28 04:51:10;;;;;;;5.97;5.47;;;;;22.60;100624.00;;;;2072825;28;20832;-69
2021/08/28 04:52:11;;;;;;;6.20;5.70;;;;;22.60;100622.00;;;;2073100;28;20222;-69
2021/08/28 04:53:11;;;;;;;5.90;5.40;;;;;22.60;100625.00;;;;2072997;28;20246;-69
2021/08/28 04:54:11;;;;;;;6.00;5.50;;;;;22.60;100624.00;;;;2072986;28;20225;-69
2021/08/28 04:55:12;;;;;;;5.70;5.20;;;;;22.60;100623.00;;;;2073169;28;20230;-69
2021/08/28 04:56:12;;;;;;;6.23;5.73;;;;;22.60;100629.00;;;;2072934;28;20689;-69
2021/08/28 04:57:12;;;;;;;6.90;6.30;;;;;22.60;100630.00;;;;2072454;28;20771;-69
2021/08/28 04:58:13;;;;;;;6.30;5.80;;;;;22.60;100625.00;;;;2072481;28;20771;-69
2021/08/28 04:59:13;;;;;;;6.27;5.77;;;;;22.60;100627.00;;;;2072307;28;20699;-69
2021/08/28 05:00:14;;;;;;;6.33;5.83;;;;;22.60;100623.00;;;;2073171;28;20214;-69
2021/08/28 05:01:14;;;;;;;6.17;5.67;;;;;22.60;100628.00;;;;2073080;28;20218;-69
2021/08/28 05:02:14;;;;;;;6.20;5.70;;;;;22.60;100630.00;;;;2072987;28;20453;-69
2021/08/28 05:03:15;;;;;;;5.73;5.33;;;;;22.60;100622.00;;;;2072898;28;20237;-69
2021/08/28 05:04:15;;;;;;;5.97;5.47;;;;;22.60;100622.00;;;;2073096;28;20220;-69
2021/08/28 05:05:15;;;;;;;5.90;5.40;;;;;22.60;100625.00;;;;2072560;28;20210;-69